Terminal Aerodrome Forecast
Issued by NWS Riverton, WY

Home | Current Version | Previous Version | Text Only | Print | Product List | Glossary On
Versions: 1 2 3 4 5 6 7 8 9 10 11 12 13
145
FTUS45 KRIW 290520
TAFRIW
TAF
KRIW 290520Z 2906/3006 VRB06KT P6SM SCT200
     FM292300 30011KT P6SM SCT080 BKN150=

USA.gov is the U.S. government's official web portal to all federal, state and local government web resources and services.